createdAt,value
2022-10-04T00:00:38.940Z,100376.97
2022-10-04T00:03:38.006Z,100385.84
2022-10-04T00:06:12.645Z,100375.41
2022-10-04T00:08:52.396Z,100383.47
2022-10-04T00:11:43.492Z,100381.59
2022-10-04T00:14:25.045Z,100388.84
2022-10-04T00:16:53.390Z,100395.09
2022-10-04T00:19:20.277Z,100391.56
2022-10-04T00:21:58.698Z,100403.16
2022-10-04T00:24:28.823Z,100387.34
2022-10-04T00:27:22.221Z,100403.22
2022-10-04T00:30:01.712Z,100398.81
2022-10-04T00:32:39.621Z,100392.78
2022-10-04T00:35:33.279Z,100407.88
2022-10-04T00:38:15.833Z,100401.81
2022-10-04T00:40:49.389Z,100399.38
2022-10-04T00:43:32.339Z,100412.00
2022-10-04T00:46:07.798Z,100412.88
2022-10-04T00:48:45.083Z,100419.09
2022-10-04T00:51:35.552Z,100422.03
2022-10-04T00:54:24.418Z,100416.78
2022-10-04T00:56:56.234Z,100411.63
2022-10-04T00:59:41.192Z,100414.28
2022-10-04T01:02:17.406Z,100413.69
2022-10-04T01:05:06.833Z,100420.78
2022-10-04T01:07:40.624Z,100417.47
2022-10-04T01:10:14.510Z,100418.44
2022-10-04T01:12:57.191Z,100409.69
2022-10-04T01:15:45.557Z,100420.31
2022-10-04T01:18:18.955Z,100425.78
2022-10-04T01:21:01.339Z,100415.34
2022-10-04T01:23:49.578Z,100428.75
2022-10-04T01:26:36.665Z,100426.34
2022-10-04T01:29:06.949Z,100429.81
2022-10-04T01:31:37.118Z,100427.25
2022-10-04T01:34:06.082Z,100430.06
2022-10-04T01:36:37.164Z,100433.63
2022-10-04T01:39:07.067Z,100437.44
2022-10-04T01:41:44.962Z,100439.19
2022-10-04T01:44:25.024Z,100444.66
2022-10-04T01:46:55.934Z,100436.94
2022-10-04T01:49:29.289Z,100456.25
2022-10-04T01:52:20.417Z,100446.81
2022-10-04T01:55:03.850Z,100457.31
2022-10-04T01:57:37.743Z,100458.31
2022-10-04T02:00:08.995Z,100455.03
2022-10-04T02:02:40.781Z,100456.88
2022-10-04T02:05:12.892Z,100472.78
2022-10-04T02:07:41.502Z,100471.25
2022-10-04T02:10:22.055Z,100482.66
2022-10-04T02:12:54.767Z,100469.63
2022-10-04T02:15:26.863Z,100474.00
2022-10-04T02:17:57.234Z,100472.47
2022-10-04T02:20:27.309Z,100464.56
2022-10-04T02:23:03.115Z,100466.34
2022-10-04T02:25:31.327Z,100472.63
2022-10-04T02:27:58.685Z,100478.00
2022-10-04T02:30:25.804Z,100476.34
2022-10-04T02:33:02.661Z,100477.19
2022-10-04T02:35:44.382Z,100479.03
2022-10-04T02:38:22.995Z,100473.88
2022-10-04T02:40:57.744Z,100473.06
2022-10-04T02:43:36.270Z,100483.72
2022-10-04T02:46:29.550Z,100482.88
2022-10-04T02:48:59.600Z,100485.47
2022-10-04T02:51:54.096Z,100484.59
2022-10-04T02:54:27.822Z,100492.63
2022-10-04T02:56:56.930Z,100496.19
2022-10-04T02:59:24.733Z,100489.28
2022-10-04T03:02:00.121Z,100487.44
2022-10-04T03:04:33.822Z,100486.56
2022-10-04T03:07:07.142Z,100498.84
2022-10-04T03:09:37.449Z,100503.25
2022-10-04T03:12:05.946Z,100495.28
2022-10-04T03:14:34.259Z,100495.44
2022-10-04T03:17:04.393Z,100500.75
2022-10-04T03:19:34.974Z,100507.78
2022-10-04T03:22:14.902Z,100504.38
2022-10-04T03:24:51.962Z,100488.66
2022-10-04T03:27:28.553Z,100499.19
2022-10-04T03:29:59.204Z,100500.94
2022-10-04T03:32:30.601Z,100511.53
2022-10-04T03:35:01.136Z,100507.22
2022-10-04T03:37:33.029Z,100509.00
2022-10-04T03:40:02.997Z,100509.13
2022-10-04T03:42:34.870Z,100504.72
2022-10-04T03:45:11.709Z,100511.72
2022-10-04T03:47:43.511Z,100506.41
2022-10-04T03:50:20.344Z,100512.63
2022-10-04T03:53:43.725Z,100510.78
2022-10-04T03:56:35.836Z,100516.94
2022-10-04T03:59:05.727Z,100511.63
2022-10-04T04:02:24.438Z,100512.53
2022-10-04T04:05:13.219Z,100514.25
2022-10-04T04:07:46.152Z,100523.94
2022-10-04T04:10:23.274Z,100528.38
2022-10-04T04:12:56.325Z,100533.75
2022-10-04T04:15:28.136Z,100531.19
2022-10-04T04:17:55.764Z,100526.88
2022-10-04T04:20:28.782Z,100538.97
2022-10-04T04:29:46.706Z,100554.56
2022-10-04T04:32:32.711Z,100564.13
2022-10-04T04:35:21.236Z,100564.19
2022-10-04T04:38:22.209Z,100571.41
2022-10-04T04:40:51.174Z,100578.44
2022-10-04T04:43:20.148Z,100574.22
2022-10-04T04:48:48.689Z,100579.66
2022-10-04T04:51:22.171Z,100586.84
2022-10-04T04:53:51.056Z,100594.69
2022-10-04T04:56:23.493Z,100591.94
2022-10-04T04:58:53.117Z,100599.44
2022-10-04T05:01:34.392Z,100602.63
2022-10-04T05:04:06.714Z,100597.22
2022-10-04T05:06:36.174Z,100609.22
2022-10-04T05:09:06.132Z,100611.59
2022-10-04T05:11:36.453Z,100615.88
2022-10-04T05:14:10.658Z,100620.00
2022-10-04T05:16:51.696Z,100630.34
2022-10-04T05:19:33.265Z,100634.56
2022-10-04T05:22:07.118Z,100625.72
2022-10-04T05:24:43.606Z,100636.84
2022-10-04T05:27:33.185Z,100634.06
2022-10-04T05:30:04.644Z,100639.28
2022-10-04T05:35:49.483Z,100641.81
2022-10-04T05:38:28.154Z,100640.13
2022-10-04T05:41:16.377Z,100633.03
2022-10-04T05:43:52.671Z,100646.00
2022-10-04T05:46:29.058Z,100651.03
2022-10-04T05:49:01.171Z,100652.50
2022-10-04T05:51:34.182Z,100656.91
2022-10-04T05:54:03.036Z,100648.72
2022-10-04T05:56:35.992Z,100666.03
2022-10-04T05:59:20.983Z,100667.72
2022-10-04T06:02:20.372Z,100666.28
2022-10-04T06:05:16.403Z,100672.13
2022-10-04T06:08:08.381Z,100668.44
2022-10-04T06:10:52.055Z,100669.66
2022-10-04T06:13:40.532Z,100676.13
2022-10-04T06:16:40.592Z,100678.44
2022-10-04T06:19:13.645Z,100673.53
2022-10-04T06:21:50.378Z,100688.34
2022-10-04T06:24:27.766Z,100681.00
2022-10-04T06:27:11.222Z,100680.84
2022-10-04T06:29:43.786Z,100677.56
2022-10-04T06:32:53.872Z,100653.41
2022-10-04T06:35:46.030Z,100683.50
2022-10-04T06:38:50.057Z,100683.50
2022-10-04T06:41:49.693Z,100689.69
2022-10-04T06:44:36.867Z,100695.19
2022-10-04T06:47:44.740Z,100708.16
2022-10-04T06:50:48.674Z,100707.25
2022-10-04T06:53:19.191Z,100716.16
2022-10-04T06:56:03.073Z,100715.16
2022-10-04T06:58:49.847Z,100720.66
2022-10-04T07:01:39.427Z,100715.34
2022-10-04T07:04:22.292Z,100733.00
2022-10-04T07:07:22.830Z,100720.50
2022-10-04T07:10:00.551Z,100733.94
2022-10-04T07:12:37.016Z,100730.25
2022-10-04T07:15:17.986Z,100715.97
2022-10-04T07:17:48.324Z,100739.72
2022-10-04T07:20:27.342Z,100733.44
2022-10-04T07:23:07.247Z,100736.66
2022-10-04T07:25:42.490Z,100723.88
2022-10-04T07:28:28.466Z,100743.09
2022-10-04T07:31:08.792Z,100743.88
2022-10-04T07:33:47.218Z,100755.00
2022-10-04T07:36:22.174Z,100736.34
2022-10-04T07:39:00.450Z,100749.53
2022-10-04T07:41:35.875Z,100737.88
2022-10-04T07:44:12.295Z,100766.69
2022-10-04T07:47:17.200Z,100764.53
2022-10-04T07:49:45.364Z,100764.19
2022-10-04T07:52:24.522Z,100771.72
2022-10-04T07:55:07.370Z,100761.69
2022-10-04T07:58:09.665Z,100775.22
2022-10-04T08:01:14.288Z,100773.78
2022-10-04T08:04:06.788Z,100773.47
2022-10-04T08:06:53.185Z,100776.69
2022-10-04T08:09:35.313Z,100774.69
2022-10-04T08:12:16.237Z,100759.22
2022-10-04T08:15:28.485Z,100778.81
2022-10-04T08:18:17.298Z,100765.38
2022-10-04T08:20:53.924Z,100780.47
2022-10-04T08:23:43.098Z,100772.16
2022-10-04T08:26:46.047Z,100757.66
2022-10-04T08:29:38.613Z,100770.78
2022-10-04T08:32:27.842Z,100772.56
2022-10-04T08:35:19.467Z,100760.72
2022-10-04T08:41:56.197Z,100774.19
2022-10-04T08:44:38.960Z,100770.16
2022-10-04T08:47:46.791Z,100773.53
2022-10-04T08:50:56.419Z,100780.28
2022-10-04T08:53:47.898Z,100773.84
2022-10-04T08:56:33.746Z,100773.00
2022-10-04T08:59:12.115Z,100763.81
2022-10-04T09:02:02.038Z,100781.91
2022-10-04T09:05:07.002Z,100780.44
2022-10-04T09:08:14.291Z,100789.78
2022-10-04T09:10:54.728Z,100785.09
2022-10-04T09:13:27.757Z,100779.72
2022-10-04T09:16:09.929Z,100783.06
2022-10-04T09:19:13.667Z,100784.16
2022-10-04T09:21:48.600Z,100784.09
2022-10-04T09:24:22.100Z,100785.81
2022-10-04T09:27:26.844Z,100784.63
2022-10-04T09:30:23.075Z,100780.59
2022-10-04T09:33:04.401Z,100793.94
2022-10-04T09:35:42.984Z,100797.88
2022-10-04T09:38:42.613Z,100794.88
2022-10-04T09:41:38.169Z,100802.44
2022-10-04T09:44:28.586Z,100811.19
2022-10-04T09:47:21.471Z,100796.19
2022-10-04T09:50:19.106Z,100810.75
2022-10-04T09:53:05.757Z,100808.25
2022-10-04T09:56:04.949Z,100805.81
2022-10-04T09:58:40.705Z,100806.22
2022-10-04T10:01:33.685Z,100794.84
2022-10-04T10:04:38.044Z,100809.75
2022-10-04T10:07:14.736Z,100811.69
2022-10-04T10:13:51.753Z,100809.88
2022-10-04T10:16:44.206Z,100810.13
2022-10-04T10:19:39.094Z,100820.88
2022-10-04T10:22:28.218Z,100788.91
2022-10-04T10:25:09.551Z,100814.81
2022-10-04T10:28:11.767Z,100815.47
2022-10-04T10:31:04.304Z,100825.00
2022-10-04T10:34:03.957Z,100822.22
2022-10-04T10:37:09.889Z,100826.31
2022-10-04T10:39:46.145Z,100824.66
2022-10-04T10:42:41.526Z,100829.03
2022-10-04T10:45:35.644Z,100834.34
2022-10-04T10:48:27.431Z,100820.06
2022-10-04T10:51:20.558Z,100819.78
2022-10-04T10:54:28.444Z,100816.84
2022-10-04T10:57:15.015Z,100816.88
2022-10-04T11:00:20.671Z,100797.63
2022-10-04T11:03:14.646Z,100818.28
2022-10-04T11:06:07.925Z,100821.31
2022-10-04T11:09:13.002Z,100826.94
2022-10-04T11:18:38.602Z,100825.69
2022-10-04T11:21:18.022Z,100820.81
2022-10-04T11:24:14.354Z,100816.97
2022-10-04T11:30:26.579Z,100826.13
2022-10-04T11:33:10.430Z,100838.31
2022-10-04T11:36:02.301Z,100824.78
2022-10-04T11:38:32.206Z,100837.38
2022-10-04T11:41:39.994Z,100831.09
2022-10-04T11:44:16.508Z,100832.84
2022-10-04T11:47:08.409Z,100828.44
2022-10-04T11:49:57.502Z,100832.22
2022-10-04T11:53:00.727Z,100852.13
2022-10-04T11:56:10.275Z,100845.63
2022-10-04T11:58:49.344Z,100849.19
2022-10-04T12:01:48.780Z,100850.22
2022-10-04T12:05:02.342Z,100854.75
2022-10-04T12:08:07.569Z,100843.16
2022-10-04T12:10:42.599Z,100844.44
2022-10-04T12:13:49.692Z,100844.44
2022-10-04T12:16:31.742Z,100843.38
2022-10-04T12:19:29.442Z,100853.69
2022-10-04T12:22:40.634Z,100861.19
2022-10-04T12:25:27.403Z,100856.50
2022-10-04T12:28:43.674Z,100857.53
2022-10-04T12:31:23.259Z,100863.03
2022-10-04T12:34:20.919Z,100859.06
2022-10-04T12:36:54.119Z,100859.94
2022-10-04T12:40:04.736Z,100855.59
2022-10-04T12:43:04.915Z,100864.81
2022-10-04T12:46:02.456Z,100869.53
2022-10-04T12:52:41.528Z,100867.72
2022-10-04T12:55:49.135Z,100858.78
2022-10-04T12:58:35.357Z,100867.72
2022-10-04T13:01:53.742Z,100872.22
2022-10-04T13:04:45.206Z,100872.00
2022-10-04T13:07:43.658Z,100875.66
2022-10-04T13:10:40.965Z,100860.22
2022-10-04T13:13:17.848Z,100874.50
2022-10-04T13:19:28.726Z,100872.81
2022-10-04T13:22:07.288Z,100887.28
2022-10-04T13:28:22.778Z,100885.84
2022-10-04T13:31:22.808Z,100872.69
2022-10-04T13:33:58.333Z,100879.91
2022-10-04T13:36:56.955Z,100876.66
2022-10-04T13:39:44.465Z,100875.97
2022-10-04T13:42:23.187Z,100888.03
2022-10-04T13:45:22.962Z,100892.84
2022-10-04T13:48:42.025Z,100882.50
2022-10-04T13:51:42.952Z,100881.13
2022-10-04T13:55:04.074Z,100891.31
2022-10-04T13:57:50.386Z,100890.72
2022-10-04T14:00:51.591Z,100899.22
2022-10-04T14:03:31.565Z,100909.16
2022-10-04T14:07:00.133Z,100909.72
2022-10-04T14:10:02.147Z,100909.19
2022-10-04T14:13:05.477Z,100914.00
2022-10-04T14:16:06.639Z,100924.97
2022-10-04T14:18:58.797Z,100921.88
2022-10-04T14:21:34.812Z,100928.28
2022-10-04T14:24:44.341Z,100928.47
2022-10-04T14:27:31.835Z,100928.81
2022-10-04T14:33:55.522Z,100933.44
2022-10-04T14:36:55.932Z,100945.13
2022-10-04T14:39:23.277Z,100949.78
2022-10-04T14:42:21.852Z,100948.16
2022-10-04T14:45:01.895Z,100960.00
2022-10-04T14:48:00.420Z,100945.47
2022-10-04T14:51:00.059Z,100955.28
2022-10-04T14:53:53.981Z,100963.44
2022-10-04T14:56:53.738Z,100961.09
2022-10-04T14:59:48.295Z,100960.31
2022-10-04T15:02:31.857Z,100965.69
2022-10-04T15:05:38.657Z,100972.06
2022-10-04T15:11:07.834Z,100974.59
2022-10-04T15:17:08.971Z,100984.94
2022-10-04T15:20:11.076Z,100988.00
2022-10-04T15:22:56.855Z,100993.69
2022-10-04T15:26:06.798Z,101000.94
2022-10-04T15:32:24.597Z,101013.16
2022-10-04T15:35:42.686Z,101018.06
2022-10-04T15:38:53.178Z,101014.06
2022-10-04T15:41:35.564Z,101029.56
2022-10-04T15:44:19.421Z,101035.19
2022-10-04T15:47:07.355Z,101039.06
2022-10-04T15:49:37.443Z,101041.09
2022-10-04T15:52:29.614Z,101045.91
2022-10-04T15:55:26.010Z,101049.81
2022-10-04T15:58:12.606Z,101047.50
2022-10-04T16:01:08.325Z,101061.34
2022-10-04T16:04:11.691Z,101060.09
2022-10-04T16:07:04.408Z,101060.38
2022-10-04T16:10:16.220Z,101060.88
2022-10-04T16:16:49.773Z,101077.72
2022-10-04T16:19:31.233Z,101090.28
2022-10-04T16:22:18.973Z,101092.50
2022-10-04T16:24:53.998Z,101102.66
2022-10-04T16:27:27.602Z,101105.59
2022-10-04T16:30:40.347Z,101110.47
2022-10-04T16:33:33.230Z,101118.03
2022-10-04T16:36:49.887Z,101125.72
2022-10-04T16:39:59.003Z,101124.56
2022-10-04T16:42:34.695Z,101128.78
2022-10-04T16:45:05.562Z,101130.09
2022-10-04T16:47:34.677Z,101138.44
2022-10-04T16:50:04.996Z,101137.91
2022-10-04T16:52:49.568Z,101138.34
2022-10-04T16:55:36.709Z,101136.84
2022-10-04T16:58:26.447Z,101149.47
2022-10-04T17:01:26.014Z,101147.22
2022-10-04T17:04:06.275Z,101133.81
2022-10-04T17:07:21.531Z,101157.56
2022-10-04T17:10:07.300Z,101160.69
2022-10-04T17:12:59.167Z,101164.63
2022-10-04T17:15:48.304Z,101171.94
2022-10-04T17:21:46.291Z,101162.03
2022-10-04T17:24:40.327Z,101171.03
2022-10-04T17:27:30.211Z,101171.22
2022-10-04T17:33:21.957Z,101181.44
2022-10-04T17:36:07.637Z,101189.47
2022-10-04T17:38:54.257Z,101190.03
2022-10-04T17:42:34.328Z,101201.44
2022-10-04T17:45:50.991Z,101194.91
2022-10-04T17:49:04.001Z,101187.66
2022-10-04T17:52:03.906Z,101202.09
2022-10-04T17:54:55.565Z,101208.97
2022-10-04T17:57:46.719Z,101211.44
2022-10-04T18:00:19.498Z,101207.31
2022-10-04T18:02:59.989Z,101217.75
2022-10-04T18:05:33.535Z,101206.94
2022-10-04T18:08:11.172Z,101211.19
2022-10-04T18:11:01.939Z,101217.91
2022-10-04T18:13:50.900Z,101228.09
2022-10-04T18:16:55.893Z,101220.56
2022-10-04T18:19:44.161Z,101224.59
2022-10-04T18:22:21.938Z,101230.63
2022-10-04T18:25:12.606Z,101232.59
2022-10-04T18:28:12.573Z,101241.44
2022-10-04T18:30:51.495Z,101245.00
2022-10-04T18:39:24.699Z,101251.84
2022-10-04T18:42:17.288Z,101263.44
2022-10-04T18:45:27.810Z,101256.50
2022-10-04T18:48:43.236Z,101262.75
2022-10-04T18:52:13.878Z,101268.16
2022-10-04T18:55:19.801Z,101271.91
2022-10-04T18:58:23.138Z,101268.59
2022-10-04T19:01:49.867Z,101272.44
2022-10-04T19:04:45.951Z,101279.66
2022-10-04T19:07:16.948Z,101272.66
2022-10-04T19:10:15.475Z,101278.75
2022-10-04T19:13:03.454Z,101275.16
2022-10-04T19:16:09.319Z,101285.47
2022-10-04T19:18:51.461Z,101295.19
2022-10-04T19:21:33.307Z,101294.06
2022-10-04T19:24:19.192Z,101285.81
2022-10-04T19:27:14.536Z,101281.13
2022-10-04T19:29:51.309Z,101286.16
2022-10-04T19:32:52.149Z,101283.97
2022-10-04T19:35:29.074Z,101300.53
2022-10-04T19:38:41.540Z,101305.69
2022-10-04T19:41:43.478Z,101296.81
2022-10-04T19:44:46.626Z,101301.22
2022-10-04T19:47:35.348Z,101308.16
2022-10-04T19:50:39.844Z,101305.59
2022-10-04T19:53:28.456Z,101301.09
2022-10-04T19:58:43.666Z,101325.78
2022-10-04T20:01:23.615Z,101313.44
2022-10-04T20:04:13.344Z,101322.06
2022-10-04T20:06:59.490Z,101328.28
2022-10-04T20:09:54.877Z,101317.72
2022-10-04T20:12:43.580Z,101332.56
2022-10-04T20:15:17.915Z,101329.16
2022-10-04T20:17:49.072Z,101318.53
2022-10-04T20:20:54.686Z,101342.25
2022-10-04T20:23:43.423Z,101341.38
2022-10-04T20:26:56.003Z,101341.38
2022-10-04T20:29:39.257Z,101336.97
2022-10-04T20:32:36.413Z,101336.91
2022-10-04T20:35:06.537Z,101346.78
2022-10-04T20:38:02.943Z,101343.25
2022-10-04T20:40:39.490Z,101345.81
2022-10-04T20:43:17.192Z,101343.28
2022-10-04T20:45:48.098Z,101339.09
2022-10-04T20:48:24.264Z,101350.47
2022-10-04T20:50:53.684Z,101346.31
2022-10-04T20:53:23.057Z,101351.47
2022-10-04T20:55:54.152Z,101354.16
2022-10-04T20:58:32.644Z,101365.56
2022-10-04T21:01:20.889Z,101367.34
2022-10-04T21:03:48.249Z,101362.31
2022-10-04T21:06:16.886Z,101363.06
2022-10-04T21:08:44.377Z,101363.13
2022-10-04T21:11:20.419Z,101372.03
2022-10-04T21:14:01.012Z,101370.31
2022-10-04T21:16:48.058Z,101377.28
2022-10-04T21:19:38.908Z,101383.59
2022-10-04T21:22:16.535Z,101374.84
2022-10-04T21:24:49.720Z,101392.59
2022-10-04T21:27:33.170Z,101380.38
2022-10-04T21:30:02.576Z,101380.03
2022-10-04T21:32:35.027Z,101389.03
2022-10-04T21:35:04.586Z,101384.06
2022-10-04T21:37:55.513Z,101395.66
2022-10-04T21:40:22.491Z,101389.75
2022-10-04T21:42:50.931Z,101386.38
2022-10-04T21:45:17.997Z,101381.25
2022-10-04T21:47:44.985Z,101382.38
2022-10-04T21:50:12.280Z,101406.44
2022-10-04T21:52:40.048Z,101398.53
2022-10-04T21:55:10.737Z,101406.53
2022-10-04T21:57:38.126Z,101407.47
2022-10-04T22:00:06.713Z,101402.47
2022-10-04T22:02:34.131Z,101411.56
2022-10-04T22:05:02.439Z,101409.94
2022-10-04T22:07:29.767Z,101417.94
2022-10-04T22:10:04.923Z,101412.72
2022-10-04T22:12:32.143Z,101409.84
2022-10-04T22:14:59.229Z,101418.31
2022-10-04T22:17:26.367Z,101422.44
2022-10-04T22:19:56.712Z,101423.25
2022-10-04T22:22:23.854Z,101417.53
2022-10-04T22:24:51.071Z,101427.97
2022-10-04T22:27:20.552Z,101416.47
2022-10-04T22:29:48.371Z,101427.66
2022-10-04T22:32:24.838Z,101423.97
2022-10-04T22:34:58.019Z,101422.97
2022-10-04T22:37:25.413Z,101414.94
2022-10-04T22:39:53.078Z,101417.53
2022-10-04T22:42:22.482Z,101418.47
2022-10-04T22:44:49.732Z,101423.78
2022-10-04T22:47:16.945Z,101426.41
2022-10-04T22:49:48.101Z,101424.59
2022-10-04T22:52:22.201Z,101424.72
2022-10-04T22:54:52.337Z,101430.81
2022-10-04T22:57:20.407Z,101434.38
2022-10-04T22:59:50.542Z,101435.22
2022-10-04T23:02:26.850Z,101438.88
2022-10-04T23:04:58.076Z,101444.22
2022-10-04T23:07:26.063Z,101441.59
2022-10-04T23:09:55.077Z,101451.19
2022-10-04T23:12:22.371Z,101455.84
2022-10-04T23:14:49.757Z,101462.81
2022-10-04T23:17:26.413Z,101462.97
2022-10-04T23:20:09.352Z,101463.78
2022-10-04T23:22:36.328Z,101459.41
2022-10-04T23:25:16.565Z,101474.47
2022-10-04T23:27:44.756Z,101478.06
2022-10-04T23:30:15.840Z,101475.41
2022-10-04T23:32:45.084Z,101470.97
2022-10-04T23:35:30.064Z,101470.97
2022-10-04T23:37:57.418Z,101465.88
2022-10-04T23:40:25.929Z,101476.44
2022-10-04T23:42:56.680Z,101478.28
2022-10-04T23:45:25.656Z,101476.56
2022-10-04T23:47:56.402Z,101482.78
2022-10-04T23:50:33.077Z,101474.03
2022-10-04T23:53:04.751Z,101478.47
2022-10-04T23:55:42.625Z,101479.41
2022-10-04T23:58:20.561Z,101484.63
